sensor_id;sensor_type;location;lat;lon;timestamp;pressure;altitude;pressure_sealevel;temperature;humidity
26865;BME280;40618;51.166;10.322;2022-07-29T00:02:19;97566.56;;;19.00;41.54
26865;BME280;40618;51.166;10.322;2022-07-29T00:04:58;97565.72;;;19.00;41.60
26865;BME280;40618;51.166;10.322;2022-07-29T00:07:36;97565.91;;;18.97;41.70
26865;BME280;40618;51.166;10.322;2022-07-29T00:10:14;97560.97;;;18.92;41.66
26865;BME280;40618;51.166;10.322;2022-07-29T00:12:52;97563.69;;;18.90;42.04
26865;BME280;40618;51.166;10.322;2022-07-29T00:15:31;97556.97;;;18.85;41.87
26865;BME280;40618;51.166;10.322;2022-07-29T00:18:09;97565.16;;;18.80;41.87
26865;BME280;40618;51.166;10.322;2022-07-29T00:20:47;97566.19;;;18.77;41.98
26865;BME280;40618;51.166;10.322;2022-07-29T00:23:26;97559.44;;;18.73;42.08
26865;BME280;40618;51.166;10.322;2022-07-29T00:26:06;97554.28;;;18.72;42.18
26865;BME280;40618;51.166;10.322;2022-07-29T00:28:45;97557.28;;;18.66;42.45
26865;BME280;40618;51.166;10.322;2022-07-29T00:31:23;97553.16;;;18.61;42.23
26865;BME280;40618;51.166;10.322;2022-07-29T00:34:01;97551.75;;;18.56;42.31
26865;BME280;40618;51.166;10.322;2022-07-29T00:36:39;97550.16;;;18.53;42.40
26865;BME280;40618;51.166;10.322;2022-07-29T00:39:17;97546.81;;;18.51;42.59
26865;BME280;40618;51.166;10.322;2022-07-29T00:41:55;97540.78;;;18.49;42.61
26865;BME280;40618;51.166;10.322;2022-07-29T00:44:38;97542.59;;;18.49;42.75
26865;BME280;40618;51.166;10.322;2022-07-29T00:47:17;97535.75;;;18.46;42.47
26865;BME280;40618;51.166;10.322;2022-07-29T00:49:55;97526.28;;;18.43;42.66
26865;BME280;40618;51.166;10.322;2022-07-29T00:52:36;97524.69;;;18.41;42.95
26865;BME280;40618;51.166;10.322;2022-07-29T00:55:16;97522.25;;;18.38;42.61
26865;BME280;40618;51.166;10.322;2022-07-29T00:57:55;97515.63;;;18.32;42.95
26865;BME280;40618;51.166;10.322;2022-07-29T01:00:35;97510.66;;;18.27;43.20
26865;BME280;40618;51.166;10.322;2022-07-29T01:03:14;97512.53;;;18.25;43.00
26865;BME280;40618;51.166;10.322;2022-07-29T01:05:52;97497.09;;;18.21;43.17
26865;BME280;40618;51.166;10.322;2022-07-29T01:08:32;97500.53;;;18.21;43.36
26865;BME280;40618;51.166;10.322;2022-07-29T01:11:11;97488.56;;;18.17;43.33
26865;BME280;40618;51.166;10.322;2022-07-29T01:13:50;97486.88;;;18.16;43.33
26865;BME280;40618;51.166;10.322;2022-07-29T01:16:37;97486.03;;;18.16;43.38
26865;BME280;40618;51.166;10.322;2022-07-29T01:29:05;97489.88;;;18.10;43.53
26865;BME280;40618;51.166;10.322;2022-07-29T01:32:08;97491.91;;;18.05;43.62
26865;BME280;40618;51.166;10.322;2022-07-29T01:38:01;97482.56;;;18.01;43.66
26865;BME280;40618;51.166;10.322;2022-07-29T01:43:53;97484.59;;;17.96;43.56
26865;BME280;40618;51.166;10.322;2022-07-29T01:46:38;97477.00;;;17.91;43.89
26865;BME280;40618;51.166;10.322;2022-07-29T01:49:25;97481.56;;;17.87;43.87
26865;BME280;40618;51.166;10.322;2022-07-29T01:52:13;97479.72;;;17.89;43.82
26865;BME280;40618;51.166;10.322;2022-07-29T01:55:00;97471.94;;;17.88;44.17
26865;BME280;40618;51.166;10.322;2022-07-29T01:57:46;97471.28;;;17.84;44.02
26865;BME280;40618;51.166;10.322;2022-07-29T02:00:26;97465.28;;;17.82;44.08
26865;BME280;40618;51.166;10.322;2022-07-29T02:03:09;97464.53;;;17.80;44.17
26865;BME280;40618;51.166;10.322;2022-07-29T02:05:50;97465.38;;;17.81;43.96
26865;BME280;40618;51.166;10.322;2022-07-29T02:08:32;97464.53;;;17.80;44.26
26865;BME280;40618;51.166;10.322;2022-07-29T02:11:11;97465.56;;;17.77;44.09
26865;BME280;40618;51.166;10.322;2022-07-29T02:13:52;97461.44;;;17.73;44.03
26865;BME280;40618;51.166;10.322;2022-07-29T02:16:33;97460.66;;;17.71;44.15
26865;BME280;40618;51.166;10.322;2022-07-29T02:19:14;97451.25;;;17.69;44.22
26865;BME280;40618;51.166;10.322;2022-07-29T02:21:56;97447.56;;;17.71;44.35
26865;BME280;40618;51.166;10.322;2022-07-29T02:24:37;97444.03;;;17.72;44.21
26865;BME280;40618;51.166;10.322;2022-07-29T02:27:18;97441.69;;;17.68;44.22
26865;BME280;40618;51.166;10.322;2022-07-29T02:29:57;97437.38;;;17.67;44.28
26865;BME280;40618;51.166;10.322;2022-07-29T02:32:40;97442.03;;;17.62;44.40
26865;BME280;40618;51.166;10.322;2022-07-29T02:35:23;97443.25;;;17.56;44.37
26865;BME280;40618;51.166;10.322;2022-07-29T02:38:03;97433.88;;;17.52;44.46
26865;BME280;40618;51.166;10.322;2022-07-29T02:41:07;97434.16;;;17.47;44.55
26865;BME280;40618;51.166;10.322;2022-07-29T02:43:51;97432.56;;;17.45;44.64
26865;BME280;40618;51.166;10.322;2022-07-29T02:46:44;97439.66;;;17.42;44.67
26865;BME280;40618;51.166;10.322;2022-07-29T02:49:31;97425.72;;;17.42;44.85
26865;BME280;40618;51.166;10.322;2022-07-29T02:52:46;97434.41;;;17.42;44.88
26865;BME280;40618;51.166;10.322;2022-07-29T02:55:55;97437.13;;;17.41;44.94
26865;BME280;40618;51.166;10.322;2022-07-29T02:58:46;97430.28;;;17.38;44.97
26865;BME280;40618;51.166;10.322;2022-07-29T03:01:32;97432.25;;;17.35;44.77
26865;BME280;40618;51.166;10.322;2022-07-29T03:04:12;97426.94;;;17.36;44.92
26865;BME280;40618;51.166;10.322;2022-07-29T03:06:54;97427.03;;;17.35;45.10
26865;BME280;40618;51.166;10.322;2022-07-29T03:09:37;97427.19;;;17.32;45.21
26865;BME280;40618;51.166;10.322;2022-07-29T03:12:18;97432.78;;;17.25;45.26
26865;BME280;40618;51.166;10.322;2022-07-29T03:14:56;97417.91;;;17.26;45.24
26865;BME280;40618;51.166;10.322;2022-07-29T03:17:36;97416.16;;;17.27;45.23
26865;BME280;40618;51.166;10.322;2022-07-29T03:20:16;97415.22;;;17.28;45.37
26865;BME280;40618;51.166;10.322;2022-07-29T03:22:55;97410.16;;;17.24;45.39
26865;BME280;40618;51.166;10.322;2022-07-29T03:25:33;97402.84;;;17.15;45.58
26865;BME280;40618;51.166;10.322;2022-07-29T03:28:12;97403.13;;;17.11;45.35
26865;BME280;40618;51.166;10.322;2022-07-29T03:30:52;97396.19;;;17.09;45.73
26865;BME280;40618;51.166;10.322;2022-07-29T03:33:31;97402.28;;;17.10;45.79
26865;BME280;40618;51.166;10.322;2022-07-29T03:36:09;97413.56;;;17.11;45.66
26865;BME280;40618;51.166;10.322;2022-07-29T03:38:48;97414.41;;;17.11;45.95
26865;BME280;40618;51.166;10.322;2022-07-29T03:41:27;97425.75;;;17.12;45.80
26865;BME280;40618;51.166;10.322;2022-07-29T03:44:07;97423.38;;;17.07;45.91
26865;BME280;40618;51.166;10.322;2022-07-29T03:46:48;97419.16;;;17.04;46.04
26865;BME280;40618;51.166;10.322;2022-07-29T03:49:29;97424.38;;;17.04;45.89
26865;BME280;40618;51.166;10.322;2022-07-29T03:52:08;97423.38;;;17.07;46.09
26865;BME280;40618;51.166;10.322;2022-07-29T03:54:47;97414.69;;;17.06;46.25
26865;BME280;40618;51.166;10.322;2022-07-29T03:57:28;97430.38;;;17.06;46.13
26865;BME280;40618;51.166;10.322;2022-07-29T04:00:09;97427.94;;;17.03;46.17
26865;BME280;40618;51.166;10.322;2022-07-29T04:02:47;97429.69;;;17.03;46.22
26865;BME280;40618;51.166;10.322;2022-07-29T04:05:26;97427.94;;;17.03;46.27
26865;BME280;40618;51.166;10.322;2022-07-29T04:08:04;97426.25;;;17.02;46.24
26865;BME280;40618;51.166;10.322;2022-07-29T04:10:43;97427.09;;;17.03;46.43
26865;BME280;40618;51.166;10.322;2022-07-29T04:13:21;97432.31;;;17.03;46.35
26865;BME280;40618;51.166;10.322;2022-07-29T04:15:59;97429.69;;;17.03;46.51
26865;BME280;40618;51.166;10.322;2022-07-29T04:18:38;97427.09;;;17.03;46.36
26865;BME280;40618;51.166;10.322;2022-07-29T04:21:16;97420.19;;;17.02;46.37
26865;BME280;40618;51.166;10.322;2022-07-29T04:23:54;97434.19;;;17.01;46.54
26865;BME280;40618;51.166;10.322;2022-07-29T04:26:33;97430.81;;;16.99;46.49
26865;BME280;40618;51.166;10.322;2022-07-29T04:29:12;97425.84;;;16.94;46.35
26865;BME280;40618;51.166;10.322;2022-07-29T04:31:51;97430.31;;;16.92;46.65
26865;BME280;40618;51.166;10.322;2022-07-29T04:34:29;97437.22;;;16.93;46.82
26865;BME280;40618;51.166;10.322;2022-07-29T04:37:07;97429.19;;;16.96;46.90
26865;BME280;40618;51.166;10.322;2022-07-29T04:39:46;97429.16;;;16.98;46.70
26865;BME280;40618;51.166;10.322;2022-07-29T04:42:24;97428.28;;;16.97;46.96
26865;BME280;40618;51.166;10.322;2022-07-29T04:45:04;97427.53;;;16.95;46.68
26865;BME280;40618;51.166;10.322;2022-07-29T04:47:43;97436.41;;;16.92;46.71
26865;BME280;40618;51.166;10.322;2022-07-29T04:50:21;97426.94;;;16.90;46.83
26865;BME280;40618;51.166;10.322;2022-07-29T04:52:59;97427.78;;;16.90;46.89
26865;BME280;40618;51.166;10.322;2022-07-29T04:55:38;97428.72;;;16.89;46.88
26865;BME280;40618;51.166;10.322;2022-07-29T04:58:16;97431.47;;;16.86;47.00
26865;BME280;40618;51.166;10.322;2022-07-29T05:00:54;97438.47;;;16.86;47.16
26865;BME280;40618;51.166;10.322;2022-07-29T05:03:32;97443.63;;;16.87;47.23
26865;BME280;40618;51.166;10.322;2022-07-29T05:06:11;97450.31;;;16.93;47.14
26865;BME280;40618;51.166;10.322;2022-07-29T05:08:49;97450.91;;;16.98;47.06
26865;BME280;40618;51.166;10.322;2022-07-29T05:11:27;97449.78;;;17.02;47.32
26865;BME280;40618;51.166;10.322;2022-07-29T05:14:06;97446.06;;;17.06;47.23
26865;BME280;40618;51.166;10.322;2022-07-29T05:16:45;97446.66;;;17.12;47.25
26865;BME280;40618;51.166;10.322;2022-07-29T05:19:23;97443.38;;;17.08;47.40
26865;BME280;40618;51.166;10.322;2022-07-29T05:22:01;97439.75;;;17.11;47.44
26865;BME280;40618;51.166;10.322;2022-07-29T05:24:40;97445.81;;;17.11;47.35
26865;BME280;40618;51.166;10.322;2022-07-29T05:27:18;97440.47;;;17.13;47.55
26865;BME280;40618;51.166;10.322;2022-07-29T05:29:56;97432.72;;;17.11;47.34
26865;BME280;40618;51.166;10.322;2022-07-29T05:32:34;97439.66;;;17.12;47.38
26865;BME280;40618;51.166;10.322;2022-07-29T05:35:13;97442.25;;;17.12;47.59
26865;BME280;40618;51.166;10.322;2022-07-29T05:37:52;97443.19;;;17.11;47.39
26865;BME280;40618;51.166;10.322;2022-07-29T05:40:30;97449.19;;;17.13;47.42
26865;BME280;40618;51.166;10.322;2022-07-29T05:43:09;97442.03;;;17.17;47.51
26865;BME280;40618;51.166;10.322;2022-07-29T05:45:47;97445.28;;;17.20;47.65
26865;BME280;40618;51.166;10.322;2022-07-29T05:48:26;97447.16;;;17.18;47.72
26865;BME280;40618;51.166;10.322;2022-07-29T05:51:05;97438.31;;;17.21;47.55
26865;BME280;40618;51.166;10.322;2022-07-29T05:53:43;97447.56;;;17.27;47.58
26865;BME280;40618;51.166;10.322;2022-07-29T05:56:22;97454.22;;;17.32;47.65
26865;BME280;40618;51.166;10.322;2022-07-29T05:59:00;97453.03;;;17.38;47.71
26865;BME280;40618;51.166;10.322;2022-07-29T06:01:38;97450.97;;;17.43;47.81
26865;BME280;40618;51.166;10.322;2022-07-29T06:04:17;97453.22;;;17.49;47.61
26865;BME280;40618;51.166;10.322;2022-07-29T06:06:56;97446.88;;;17.53;47.63
26865;BME280;40618;51.166;10.322;2022-07-29T06:09:34;97443.00;;;17.61;47.87
26865;BME280;40618;51.166;10.322;2022-07-29T06:12:12;97440.38;;;17.61;47.81
26865;BME280;40618;51.166;10.322;2022-07-29T06:14:51;97434.19;;;17.62;47.70
26865;BME280;40618;51.166;10.322;2022-07-29T06:17:30;97438.22;;;17.67;47.80
26865;BME280;40618;51.166;10.322;2022-07-29T06:20:09;97446.84;;;17.69;47.66
26865;BME280;40618;51.166;10.322;2022-07-29T06:22:48;97433.84;;;17.68;47.78
26865;BME280;40618;51.166;10.322;2022-07-29T06:25:27;97442.34;;;17.71;47.55
26865;BME280;40618;51.166;10.322;2022-07-29T06:28:06;97447.56;;;17.71;47.53
26865;BME280;40618;51.166;10.322;2022-07-29T06:30:44;97442.81;;;17.64;47.74
26865;BME280;40618;51.166;10.322;2022-07-29T06:33:23;97456.00;;;17.62;47.72
26865;BME280;40618;51.166;10.322;2022-07-29T06:36:04;97456.63;;;17.66;47.82
26865;BME280;40618;51.166;10.322;2022-07-29T06:38:43;97464.97;;;17.72;47.75
26865;BME280;40618;51.166;10.322;2022-07-29T06:41:28;97469.78;;;17.80;47.89
26865;BME280;40618;51.166;10.322;2022-07-29T06:44:06;97473.59;;;17.89;47.93
26865;BME280;40618;51.166;10.322;2022-07-29T06:46:45;97466.16;;;17.97;47.55
26865;BME280;40618;51.166;10.322;2022-07-29T06:49:26;97461.41;;;18.04;47.88
26865;BME280;40618;51.166;10.322;2022-07-29T06:52:04;97464.50;;;18.10;47.75
26865;BME280;40618;51.166;10.322;2022-07-29T06:54:43;97456.19;;;18.18;47.75
26865;BME280;40618;51.166;10.322;2022-07-29T06:57:25;97457.56;;;18.24;47.60
26865;BME280;40618;51.166;10.322;2022-07-29T07:00:04;97463.28;;;18.31;47.51
26865;BME280;40618;51.166;10.322;2022-07-29T07:02:43;97467.97;;;18.40;47.51
26865;BME280;40618;51.166;10.322;2022-07-29T07:05:23;97465.88;;;18.45;47.41
26865;BME280;40618;51.166;10.322;2022-07-29T07:08:01;97475.34;;;18.48;47.66
26865;BME280;40618;51.166;10.322;2022-07-29T07:10:40;97471.78;;;18.49;47.43
26865;BME280;40618;51.166;10.322;2022-07-29T07:13:19;97470.97;;;18.48;47.26
26865;BME280;40618;51.166;10.322;2022-07-29T07:15:57;97467.47;;;18.48;47.26
26865;BME280;40618;51.166;10.322;2022-07-29T07:18:35;97466.19;;;18.55;47.28
26865;BME280;40618;51.166;10.322;2022-07-29T07:21:13;97468.31;;;18.63;47.39
26865;BME280;40618;51.166;10.322;2022-07-29T07:23:55;97470.25;;;18.73;47.39
26865;BME280;40618;51.166;10.322;2022-07-29T07:26:33;97471.38;;;18.84;47.37
26865;BME280;40618;51.166;10.322;2022-07-29T07:29:12;97462.84;;;18.94;47.30
26865;BME280;40618;51.166;10.322;2022-07-29T07:31:50;97463.09;;;19.04;47.40
26865;BME280;40618;51.166;10.322;2022-07-29T07:34:35;97456.41;;;19.13;47.23
26865;BME280;40618;51.166;10.322;2022-07-29T07:37:15;97465.66;;;19.19;47.12
26865;BME280;40618;51.166;10.322;2022-07-29T07:39:53;97474.38;;;19.19;47.26
26865;BME280;40618;51.166;10.322;2022-07-29T07:42:31;97464.81;;;19.18;47.15
26865;BME280;40618;51.166;10.322;2022-07-29T07:45:10;97464.63;;;19.21;46.97
26865;BME280;40618;51.166;10.322;2022-07-29T07:47:52;97472.38;;;19.23;47.09
26865;BME280;40618;51.166;10.322;2022-07-29T07:50:31;97473.25;;;19.23;46.94
26865;BME280;40618;51.166;10.322;2022-07-29T07:53:09;97474.84;;;19.26;47.15
26865;BME280;40618;51.166;10.322;2022-07-29T07:55:47;97473.16;;;19.25;46.97
26865;BME280;40618;51.166;10.322;2022-07-29T07:58:44;97463.78;;;19.21;46.94
26865;BME280;40618;51.166;10.322;2022-07-29T08:01:23;97471.47;;;19.24;47.18
26865;BME280;40618;51.166;10.322;2022-07-29T08:04:01;97482.41;;;19.31;46.88
26865;BME280;40618;51.166;10.322;2022-07-29T08:06:39;97474.66;;;19.42;47.05
26865;BME280;40618;51.166;10.322;2022-07-29T08:09:17;97472.25;;;19.52;46.70
26865;BME280;40618;51.166;10.322;2022-07-29T08:12:05;97466.28;;;19.62;47.10
26865;BME280;40618;51.166;10.322;2022-07-29T08:14:44;97471.59;;;19.75;46.61
26865;BME280;40618;51.166;10.322;2022-07-29T08:17:22;97470.91;;;19.86;46.65
26865;BME280;40618;51.166;10.322;2022-07-29T08:20:00;97482.22;;;20.00;46.47
26865;BME280;40618;51.166;10.322;2022-07-29T08:22:39;97485.81;;;20.11;46.29
26865;BME280;40618;51.166;10.322;2022-07-29T08:25:17;97486.13;;;20.20;46.17
26865;BME280;40618;51.166;10.322;2022-07-29T08:27:58;97491.50;;;20.18;45.91
26865;BME280;40618;51.166;10.322;2022-07-29T08:30:36;97495.06;;;20.17;46.20
26865;BME280;40618;51.166;10.322;2022-07-29T08:33:15;97493.31;;;20.18;46.02
26865;BME280;40618;51.166;10.322;2022-07-29T08:35:53;97489.81;;;20.17;46.23
26865;BME280;40618;51.166;10.322;2022-07-29T08:38:31;97482.69;;;20.19;46.03
26865;BME280;40618;51.166;10.322;2022-07-29T08:41:10;97480.75;;;20.21;45.89
26865;BME280;40618;51.166;10.322;2022-07-29T08:43:49;97483.28;;;20.23;45.86
26865;BME280;40618;51.166;10.322;2022-07-29T08:46:28;97482.13;;;20.27;46.02
26865;BME280;40618;51.166;10.322;2022-07-29T08:49:06;97482.88;;;20.29;46.15
26865;BME280;40618;51.166;10.322;2022-07-29T08:51:45;97482.66;;;20.32;46.11
26865;BME280;40618;51.166;10.322;2022-07-29T08:54:25;97478.25;;;20.33;46.01
26865;BME280;40618;51.166;10.322;2022-07-29T08:57:05;97488.56;;;20.36;45.91
26865;BME280;40618;51.166;10.322;2022-07-29T08:59:46;97479.63;;;20.38;45.59
26865;BME280;40618;51.166;10.322;2022-07-29T09:02:29;97475.94;;;20.41;45.94
26865;BME280;40618;51.166;10.322;2022-07-29T09:05:14;97471.72;;;20.38;45.63
26865;BME280;40618;51.166;10.322;2022-07-29T09:07:53;97472.78;;;20.36;45.77
26865;BME280;40618;51.166;10.322;2022-07-29T09:10:32;97460.16;;;20.28;45.81
26865;BME280;40618;51.166;10.322;2022-07-29T09:13:12;97456.69;;;20.27;45.58
26865;BME280;40618;51.166;10.322;2022-07-29T09:15:50;97456.47;;;20.31;45.82
26865;BME280;40618;51.166;10.322;2022-07-29T09:18:55;97457.00;;;20.36;45.95
26865;BME280;40618;51.166;10.322;2022-07-29T09:21:40;97453.72;;;20.45;45.79
26865;BME280;40618;51.166;10.322;2022-07-29T09:24:43;97446.66;;;20.45;45.89
26865;BME280;40618;51.166;10.322;2022-07-29T09:27:24;97449.72;;;20.52;45.76
26865;BME280;40618;51.166;10.322;2022-07-29T09:30:10;97451.47;;;20.65;45.74
26865;BME280;40618;51.166;10.322;2022-07-29T09:33:03;97446.41;;;20.74;45.40
26865;BME280;40618;51.166;10.322;2022-07-29T09:35:42;97431.97;;;20.80;45.55
26865;BME280;40618;51.166;10.322;2022-07-29T09:38:34;97434.72;;;20.78;45.33
26865;BME280;40618;51.166;10.322;2022-07-29T09:41:14;97441.56;;;20.81;45.25
26865;BME280;40618;51.166;10.322;2022-07-29T09:43:56;97429.84;;;20.85;45.46
26865;BME280;40618;51.166;10.322;2022-07-29T09:46:36;97434.19;;;20.86;45.21
26865;BME280;40618;51.166;10.322;2022-07-29T09:49:14;97430.25;;;20.92;45.13
26865;BME280;40618;51.166;10.322;2022-07-29T09:52:00;97424.63;;;20.96;45.39
26865;BME280;40618;51.166;10.322;2022-07-29T09:54:43;97425.38;;;20.99;45.37
26865;BME280;40618;51.166;10.322;2022-07-29T09:57:26;97425.91;;;21.04;45.12
26865;BME280;40618;51.166;10.322;2022-07-29T10:02:48;97420.28;;;21.08;44.92
26865;BME280;40618;51.166;10.322;2022-07-29T10:05:27;97421.84;;;21.11;45.19
26865;BME280;40618;51.166;10.322;2022-07-29T10:08:13;97421.63;;;21.14;44.93
26865;BME280;40618;51.166;10.322;2022-07-29T10:11:15;97418.88;;;21.16;45.04
26865;BME280;40618;51.166;10.322;2022-07-29T10:13:54;97417.81;;;21.18;45.24
26865;BME280;40618;51.166;10.322;2022-07-29T10:16:33;97419.38;;;21.21;45.12
26865;BME280;40618;51.166;10.322;2022-07-29T10:19:12;97425.03;;;21.27;45.09
26865;BME280;40618;51.166;10.322;2022-07-29T10:21:51;97421.34;;;21.41;44.86
26865;BME280;40618;51.166;10.322;2022-07-29T10:24:35;97423.47;;;21.60;44.75
26865;BME280;40618;51.166;10.322;2022-07-29T10:27:14;97423.41;;;21.85;44.88
26865;BME280;40618;51.166;10.322;2022-07-29T10:29:53;97419.75;;;22.21;44.79
26865;BME280;40618;51.166;10.322;2022-07-29T10:42:30;97408.16;;;23.23;43.94
26865;BME280;40618;51.166;10.322;2022-07-29T10:45:10;97397.56;;;23.55;43.45
26865;BME280;40618;51.166;10.322;2022-07-29T10:48:02;97401.09;;;23.87;42.83
26865;BME280;40618;51.166;10.322;2022-07-29T10:50:54;97393.22;;;23.96;42.52
26865;BME280;40618;51.166;10.322;2022-07-29T10:53:50;97395.28;;;23.93;42.36
26865;BME280;40618;51.166;10.322;2022-07-29T10:56:31;97386.94;;;23.97;42.22
26865;BME280;40618;51.166;10.322;2022-07-29T11:01:59;97387.34;;;24.14;41.82
26865;BME280;40618;51.166;10.322;2022-07-29T11:07:37;97396.88;;;24.05;41.36
26865;BME280;40618;51.166;10.322;2022-07-29T11:10:23;97388.34;;;24.02;41.47
26865;BME280;40618;51.166;10.322;2022-07-29T11:13:07;97390.50;;;24.08;41.30
26865;BME280;40618;51.166;10.322;2022-07-29T11:15:53;97390.50;;;24.08;41.04
26865;BME280;40618;51.166;10.322;2022-07-29T11:18:32;97395.25;;;24.14;41.19
26865;BME280;40618;51.166;10.322;2022-07-29T11:21:34;97394.72;;;24.20;41.34
26865;BME280;40618;51.166;10.322;2022-07-29T11:24:33;97397.69;;;24.37;41.02
26865;BME280;40618;51.166;10.322;2022-07-29T11:27:15;97396.75;;;24.47;41.11
26865;BME280;40618;51.166;10.322;2022-07-29T11:29:58;97391.63;;;24.56;40.76
26865;BME280;40618;51.166;10.322;2022-07-29T11:32:41;97387.22;;;24.66;40.53
26865;BME280;40618;51.166;10.322;2022-07-29T11:35:24;97385.56;;;24.84;40.54
26865;BME280;40618;51.166;10.322;2022-07-29T11:38:27;97377.78;;;25.12;39.84
26865;BME280;40618;51.166;10.322;2022-07-29T11:44:03;97366.34;;;25.51;39.43
26865;BME280;40618;51.166;10.322;2022-07-29T11:46:49;97369.53;;;25.55;39.13
26865;BME280;40618;51.166;10.322;2022-07-29T11:49:30;97360.75;;;25.54;38.87
26865;BME280;40618;51.166;10.322;2022-07-29T11:52:10;97365.25;;;25.44;38.95
26865;BME280;40618;51.166;10.322;2022-07-29T11:54:50;97366.31;;;25.31;39.34
26865;BME280;40618;51.166;10.322;2022-07-29T11:58:06;97366.59;;;25.28;39.11
26865;BME280;40618;51.166;10.322;2022-07-29T12:00:47;97368.84;;;25.23;39.28
26865;BME280;40618;51.166;10.322;2022-07-29T12:03:27;97366.47;;;25.20;38.88
26865;BME280;40618;51.166;10.322;2022-07-29T12:06:13;97367.06;;;25.14;38.71
26865;BME280;40618;51.166;10.322;2022-07-29T12:08:55;97368.44;;;25.18;38.56
26865;BME280;40618;51.166;10.322;2022-07-29T12:11:34;97370.38;;;25.16;38.61
26865;BME280;40618;51.166;10.322;2022-07-29T12:17:34;97373.88;;;25.16;38.59
26865;BME280;40618;51.166;10.322;2022-07-29T12:20:12;97358.94;;;25.25;38.17
26865;BME280;40618;51.166;10.322;2022-07-29T12:23:05;97360.06;;;25.32;38.79
26865;BME280;40618;51.166;10.322;2022-07-29T12:25:46;97358.94;;;25.45;38.73
26865;BME280;40618;51.166;10.322;2022-07-29T12:28:26;97349.88;;;25.47;38.13
26865;BME280;40618;51.166;10.322;2022-07-29T12:31:04;97354.75;;;25.42;37.91
26865;BME280;40618;51.166;10.322;2022-07-29T12:33:51;97352.25;;;25.41;38.45
26865;BME280;40618;51.166;10.322;2022-07-29T12:36:32;97347.47;;;25.64;38.13
26865;BME280;40618;51.166;10.322;2022-07-29T12:39:10;97348.91;;;25.86;38.70
26865;BME280;40618;51.166;10.322;2022-07-29T12:41:49;97346.09;;;25.97;38.19
26865;BME280;40618;51.166;10.322;2022-07-29T12:44:46;97342.31;;;26.10;37.57
26865;BME280;40618;51.166;10.322;2022-07-29T12:47:26;97341.88;;;26.14;37.88
26865;BME280;40618;51.166;10.322;2022-07-29T12:50:14;97335.13;;;26.20;37.67
26865;BME280;40618;51.166;10.322;2022-07-29T12:53:11;97330.69;;;26.39;37.72
26865;BME280;40618;51.166;10.322;2022-07-29T12:55:55;97329.75;;;26.58;36.98
26865;BME280;40618;51.166;10.322;2022-07-29T12:58:37;97324.47;;;26.76;37.42
26865;BME280;40618;51.166;10.322;2022-07-29T13:01:19;97335.41;;;26.91;36.89
26865;BME280;40618;51.166;10.322;2022-07-29T13:03:59;97329.94;;;26.92;37.05
26865;BME280;40618;51.166;10.322;2022-07-29T13:06:41;97320.44;;;26.90;36.94
26865;BME280;40618;51.166;10.322;2022-07-29T13:09:36;97332.59;;;26.92;36.85
26865;BME280;40618;51.166;10.322;2022-07-29T13:12:19;97327.34;;;27.00;36.56
26865;BME280;40618;51.166;10.322;2022-07-29T13:14:55;97320.91;;;27.03;36.50
26865;BME280;40618;51.166;10.322;2022-07-29T13:17:39;97324.75;;;27.09;36.27
26865;BME280;40618;51.166;10.322;2022-07-29T13:20:25;97320.81;;;27.13;35.90
26865;BME280;40618;51.166;10.322;2022-07-29T13:23:06;97327.94;;;27.12;36.26
26865;BME280;40618;51.166;10.322;2022-07-29T13:25:45;97320.75;;;27.31;36.03
26865;BME280;40618;51.166;10.322;2022-07-29T13:28:23;97311.72;;;27.42;35.81
26865;BME280;40618;51.166;10.322;2022-07-29T13:31:01;97313.09;;;27.46;35.69
26865;BME280;40618;51.166;10.322;2022-07-29T13:33:39;97314.19;;;27.61;36.11
26865;BME280;40618;51.166;10.322;2022-07-29T13:36:17;97308.59;;;27.73;35.50
26865;BME280;40618;51.166;10.322;2022-07-29T13:38:56;97305.63;;;27.76;34.82
26865;BME280;40618;51.166;10.322;2022-07-29T13:41:34;97305.38;;;27.61;35.20
26865;BME280;40618;51.166;10.322;2022-07-29T13:44:13;97302.81;;;27.51;34.99
26865;BME280;40618;51.166;10.322;2022-07-29T13:46:51;97300.38;;;27.58;35.00
26865;BME280;40618;51.166;10.322;2022-07-29T13:49:29;97292.84;;;27.79;35.06
26865;BME280;40618;51.166;10.322;2022-07-29T13:52:07;97302.13;;;28.01;35.08
26865;BME280;40618;51.166;10.322;2022-07-29T13:54:45;97291.53;;;28.18;35.20
26865;BME280;40618;51.166;10.322;2022-07-29T13:57:24;97292.69;;;28.24;34.81
26865;BME280;40618;51.166;10.322;2022-07-29T14:00:03;97291.56;;;28.34;34.47
26865;BME280;40618;51.166;10.322;2022-07-29T14:02:42;97282.09;;;28.40;34.64
26865;BME280;40618;51.166;10.322;2022-07-29T14:05:20;97293.88;;;28.29;34.28
26865;BME280;40618;51.166;10.322;2022-07-29T14:07:58;97300.16;;;28.12;34.80
26865;BME280;40618;51.166;10.322;2022-07-29T14:10:36;97280.59;;;27.95;34.42
26865;BME280;40618;51.166;10.322;2022-07-29T14:13:14;97295.97;;;27.75;34.51
26865;BME280;40618;51.166;10.322;2022-07-29T14:16:01;97272.75;;;27.85;34.75
26865;BME280;40618;51.166;10.322;2022-07-29T14:18:39;97290.75;;;27.99;34.28
26865;BME280;40618;51.166;10.322;2022-07-29T14:21:18;97288.25;;;27.98;34.08
26865;BME280;40618;51.166;10.322;2022-07-29T14:23:59;97278.97;;;28.02;34.56
26865;BME280;40618;51.166;10.322;2022-07-29T14:26:37;97271.03;;;28.18;34.16
26865;BME280;40618;51.166;10.322;2022-07-29T14:29:15;97275.13;;;28.39;34.67
26865;BME280;40618;51.166;10.322;2022-07-29T14:31:53;97272.63;;;28.54;34.45
26865;BME280;40618;51.166;10.322;2022-07-29T14:34:33;97269.16;;;28.62;34.47
26865;BME280;40618;51.166;10.322;2022-07-29T14:37:12;97278.50;;;28.74;34.46
26865;BME280;40618;51.166;10.322;2022-07-29T14:39:52;97264.38;;;28.90;34.06
26865;BME280;40618;51.166;10.322;2022-07-29T14:42:31;97273.19;;;28.99;33.80
26865;BME280;40618;51.166;10.322;2022-07-29T14:45:09;97272.88;;;29.02;33.71